Time;durP1;ratioP1;P1;durP2;ratioP2;P2;SDS_P1;SDS_P2;PMS_P1;PMS_P2;Temp;Humidity;BMP_temperature;BMP_pressure;BME280_temperature;BME280_humidity;BME280_pressure;Samples;Min_cycle;Max_cycle;Signal;HPM_P1;HPM_P2
2021/01/16 00:00:32;;;;;;;20.27;8.33;;;2.20;81.10;;;;;;4916225;29;20034;-90
2021/01/16 00:02:58;;;;;;;16.10;8.00;;;2.10;81.20;;;;;;4920918;29;20520;-90
2021/01/16 00:05:25;;;;;;;18.57;8.33;;;2.10;81.00;;;;;;4924731;29;20024;-91
2021/01/16 00:08:03;;;;;;;17.73;8.30;;;2.10;80.70;;;;;;4930665;29;20028;-88
2021/01/16 00:10:30;;;;;;;16.77;8.13;;;2.10;81.00;;;;;;4916229;29;20382;-90
2021/01/16 00:12:56;;;;;;;18.20;8.13;;;2.00;81.50;;;;;;4906396;29;20036;-88
2021/01/16 00:15:22;;;;;;;18.77;8.80;;;2.00;81.40;;;;;;4918387;29;20067;-90
2021/01/16 00:18:24;;;;;;;16.57;8.43;;;2.00;81.70;;;;;;4927500;29;20032;-90
2021/01/16 00:20:52;;;;;;;16.70;8.20;;;2.00;81.90;;;;;;4890968;29;20040;-90
2021/01/16 00:23:20;;;;;;;20.37;8.13;;;2.00;82.00;;;;;;4903309;29;20533;-90
2021/01/16 00:25:46;;;;;;;18.83;8.90;;;2.00;82.30;;;;;;4903207;29;20091;-90
2021/01/16 00:28:26;;;;;;;22.17;9.10;;;2.00;82.10;;;;;;4914144;29;20469;-88
2021/01/16 00:30:53;;;;;;;20.63;9.13;;;2.00;82.00;;;;;;4906116;29;20079;-90
2021/01/16 00:33:19;;;;;;;17.40;7.87;;;2.00;82.00;;;;;;4918514;29;20025;-91
2021/01/16 00:35:45;;;;;;;20.00;8.90;;;2.00;82.10;;;;;;4927181;29;20019;-90
2021/01/16 00:38:12;;;;;;;19.17;8.77;;;2.00;82.40;;;;;;4912059;29;20036;-90
2021/01/16 00:40:37;;;;;;;20.27;8.93;;;2.00;82.40;;;;;;4934385;29;20027;-90
2021/01/16 00:43:09;;;;;;;21.93;9.27;;;2.00;82.50;;;;;;4906250;29;20043;-87
2021/01/16 00:45:35;;;;;;;20.35;9.10;;;2.00;82.40;;;;;;4916334;29;20063;-87
2021/01/16 00:48:18;;;;;;;19.83;8.97;;;2.00;82.30;;;;;;4911853;29;20063;-85
2021/01/16 00:50:44;;;;;;;18.63;8.53;;;2.00;82.40;;;;;;4920061;29;20106;-88
2021/01/16 00:53:11;;;;;;;24.10;9.77;;;2.00;82.50;;;;;;4906455;29;20904;-91
2021/01/16 00:55:36;;;;;;;19.43;8.70;;;2.00;82.40;;;;;;4918922;29;20509;-90
2021/01/16 00:58:09;;;;;;;18.37;8.77;;;2.00;82.20;;;;;;4928012;29;20032;-86
2021/01/16 01:00:36;;;;;;;22.10;8.73;;;2.00;82.10;;;;;;4918043;29;20032;-85
2021/01/16 01:03:02;;;;;;;17.93;8.73;;;2.00;82.10;;;;;;4902726;29;20052;-85
2021/01/16 01:05:27;;;;;;;19.63;8.50;;;2.00;82.20;;;;;;4914041;29;20423;-86
2021/01/16 01:07:53;;;;;;;20.47;8.57;;;2.00;82.20;;;;;;4921818;29;20082;-86
2021/01/16 01:10:31;;;;;;;21.63;9.03;;;2.00;82.30;;;;;;4913937;29;20044;-85
2021/01/16 01:12:57;;;;;;;17.93;8.40;;;2.00;82.30;;;;;;4919751;29;20107;-85
2021/01/16 01:15:22;;;;;;;20.53;8.77;;;1.90;82.20;;;;;;4903771;29;20239;-86
2021/01/16 01:17:59;;;;;;;20.27;8.70;;;1.90;82.30;;;;;;4910265;29;20036;-85
2021/01/16 01:20:26;;;;;;;20.70;8.73;;;1.90;82.20;;;;;;4924351;29;20042;-85
2021/01/16 01:22:52;;;;;;;19.23;8.50;;;1.90;82.20;;;;;;4920820;29;20066;-89
2021/01/16 01:25:18;;;;;;;21.23;8.70;;;1.90;82.20;;;;;;4903940;29;20442;-90
2021/01/16 01:27:49;;;;;;;17.53;8.67;;;1.90;82.40;;;;;;4912636;29;20025;-89
2021/01/16 01:30:15;;;;;;;17.23;8.23;;;1.90;82.20;;;;;;4911256;29;20036;-89
2021/01/16 01:32:42;;;;;;;20.53;9.33;;;1.80;82.00;;;;;;4904608;29;20031;-90
2021/01/16 01:35:08;;;;;;;22.73;9.57;;;1.80;81.80;;;;;;4901874;29;20111;-89
2021/01/16 01:37:39;;;;;;;20.60;8.50;;;1.80;81.80;;;;;;4934222;29;20490;-90
2021/01/16 01:40:05;;;;;;;18.80;9.07;;;1.70;82.30;;;;;;4908147;29;20318;-90
2021/01/16 01:42:31;;;;;;;20.80;9.03;;;1.70;82.30;;;;;;4912345;29;20035;-88
2021/01/16 01:44:56;;;;;;;18.80;8.53;;;1.70;82.30;;;;;;4901728;29;20029;-90
2021/01/16 01:47:22;;;;;;;21.50;9.70;;;1.80;82.20;;;;;;4932608;29;20586;-90
2021/01/16 01:49:47;;;;;;;17.73;8.63;;;1.80;82.20;;;;;;4917177;29;20031;-88
2021/01/16 01:52:14;;;;;;;22.13;9.57;;;1.80;82.40;;;;;;4906936;29;20036;-91
2021/01/16 01:54:41;;;;;;;20.20;9.83;;;1.80;82.30;;;;;;4929392;29;20394;-90
2021/01/16 01:57:11;;;;;;;21.03;9.00;;;1.70;82.20;;;;;;4916804;29;20036;-88
2021/01/16 01:59:37;;;;;;;17.83;8.80;;;1.80;82.20;;;;;;4905616;29;20051;-90
2021/01/16 02:02:04;;;;;;;20.80;9.60;;;1.90;82.00;;;;;;4926947;29;20036;-89
2021/01/16 02:04:31;;;;;;;18.57;8.73;;;1.90;81.90;;;;;;4918107;29;20028;-89
2021/01/16 02:06:58;;;;;;;21.50;9.40;;;1.90;81.70;;;;;;4901673;29;20136;-88
2021/01/16 02:09:24;;;;;;;23.77;9.53;;;1.90;81.80;;;;;;4914585;29;20036;-88
2021/01/16 02:11:53;;;;;;;22.63;9.87;;;1.90;82.00;;;;;;4905521;29;20028;-88
2021/01/16 02:14:27;;;;;;;21.03;9.20;;;1.80;82.10;;;;;;4907252;29;20024;-88
2021/01/16 02:16:55;;;;;;;23.00;10.10;;;1.90;82.30;;;;;;4899591;29;20060;-89
2021/01/16 02:20:01;;;;;;;25.00;10.03;;;1.90;82.30;;;;;;4919001;29;20099;-89
2021/01/16 02:22:31;;;;;;;23.70;9.73;;;1.90;82.40;;;;;;4906442;29;20145;-88
2021/01/16 02:25:16;;;;;;;21.27;9.90;;;1.90;82.50;;;;;;4924145;29;20039;-88
2021/01/16 02:27:57;;;;;;;20.40;9.27;;;1.90;82.50;;;;;;4934979;29;20064;-90
2021/01/16 02:30:24;;;;;;;22.90;9.87;;;1.90;82.40;;;;;;4909556;29;20116;-89
2021/01/16 02:32:50;;;;;;;23.50;9.80;;;1.90;82.40;;;;;;4918760;29;20091;-90
2021/01/16 02:35:18;;;;;;;20.23;8.93;;;1.90;82.20;;;;;;4907292;29;20119;-88
2021/01/16 02:38:19;;;;;;;21.27;9.47;;;1.90;82.00;;;;;;4941127;29;20035;-90
2021/01/16 02:41:08;;;;;;;19.40;8.73;;;2.00;81.90;;;;;;4929070;29;20123;-90
2021/01/16 02:43:39;;;;;;;23.13;9.33;;;1.90;82.00;;;;;;4921797;29;20060;-89
2021/01/16 02:46:18;;;;;;;22.50;9.53;;;1.90;82.00;;;;;;4912284;29;20059;-88
2021/01/16 02:49:18;;;;;;;23.90;9.60;;;1.80;82.30;;;;;;4915517;29;20039;-87
2021/01/16 02:52:12;;;;;;;19.37;9.73;;;1.80;82.60;;;;;;4922202;29;20127;-89
2021/01/16 02:54:40;;;;;;;18.30;8.13;;;1.80;82.70;;;;;;4898584;29;20044;-89
2021/01/16 02:57:08;;;;;;;20.90;9.33;;;1.80;82.70;;;;;;4913914;29;20044;-90
2021/01/16 02:59:45;;;;;;;16.53;8.80;;;1.80;83.00;;;;;;4917645;29;20052;-92
2021/01/16 03:02:12;;;;;;;17.07;8.93;;;1.80;83.30;;;;;;4905852;29;20032;-91
2021/01/16 03:04:39;;;;;;;23.00;9.60;;;1.80;83.10;;;;;;4897873;29;20493;-90
2021/01/16 03:07:06;;;;;;;21.27;9.80;;;1.70;83.20;;;;;;4898113;29;20028;-87
2021/01/16 03:09:33;;;;;;;23.03;9.97;;;1.70;83.40;;;;;;4903063;29;20039;-90
2021/01/16 03:11:59;;;;;;;21.60;9.77;;;1.70;83.60;;;;;;4906951;29;20065;-89
2021/01/16 03:14:31;;;;;;;23.90;10.63;;;1.60;83.60;;;;;;4922318;29;20031;-89
2021/01/16 03:17:05;;;;;;;19.85;10.13;;;1.60;83.80;;;;;;4918500;29;20032;-88
2021/01/16 03:19:33;;;;;;;20.40;9.97;;;1.60;84.10;;;;;;4907358;29;20036;-90
2021/01/16 03:21:59;;;;;;;25.57;10.77;;;1.60;84.10;;;;;;4927038;29;20020;-91
2021/01/16 03:24:26;;;;;;;21.70;9.60;;;1.50;84.00;;;;;;4903575;29;20371;-88
2021/01/16 03:26:51;;;;;;;20.17;9.50;;;1.40;84.20;;;;;;4897155;29;20077;-89
2021/01/16 03:29:17;;;;;;;23.80;9.73;;;1.40;84.50;;;;;;4916355;29;20066;-89
2021/01/16 03:31:43;;;;;;;23.57;10.17;;;1.30;84.50;;;;;;4928124;29;20024;-88
2021/01/16 03:34:08;;;;;;;21.10;9.37;;;1.30;84.50;;;;;;4916716;29;20118;-89
2021/01/16 03:36:34;;;;;;;21.47;10.27;;;1.30;84.20;;;;;;4903952;29;20036;-88
2021/01/16 03:38:59;;;;;;;22.47;9.93;;;1.30;84.00;;;;;;4913876;29;20099;-91
2021/01/16 03:41:25;;;;;;;22.37;10.60;;;1.20;83.90;;;;;;4901995;29;20114;-89
2021/01/16 03:43:51;;;;;;;22.53;9.90;;;1.20;84.10;;;;;;4927172;29;20063;-83
2021/01/16 03:46:16;;;;;;;22.97;10.87;;;1.10;84.40;;;;;;4916369;29;20119;-90
2021/01/16 03:48:42;;;;;;;24.83;11.27;;;1.10;84.70;;;;;;4902898;29;20029;-90
2021/01/16 03:51:08;;;;;;;22.43;10.57;;;1.10;84.60;;;;;;4912836;29;20036;-89
2021/01/16 03:53:33;;;;;;;20.20;9.80;;;1.00;84.50;;;;;;4903345;29;20032;-90
2021/01/16 03:55:59;;;;;;;20.50;10.03;;;1.00;84.70;;;;;;4909732;29;20034;-89
2021/01/16 03:58:25;;;;;;;19.17;9.83;;;1.00;84.50;;;;;;4912790;29;20400;-90
2021/01/16 04:00:50;;;;;;;23.47;10.90;;;1.00;84.50;;;;;;4920875;29;20088;-88
2021/01/16 04:03:16;;;;;;;22.20;10.63;;;1.00;84.70;;;;;;4934570;29;20532;-90
2021/01/16 04:05:42;;;;;;;24.80;10.73;;;0.90;84.70;;;;;;4919142;29;20024;-91
2021/01/16 04:08:07;;;;;;;23.57;10.77;;;0.90;84.70;;;;;;4918738;29;20071;-91
2021/01/16 04:10:33;;;;;;;22.37;10.53;;;0.90;84.70;;;;;;4905728;29;20024;-91
2021/01/16 04:12:58;;;;;;;22.30;10.63;;;0.80;84.70;;;;;;4931765;29;20476;-90
2021/01/16 04:15:24;;;;;;;22.67;10.53;;;0.80;84.50;;;;;;4904736;29;20429;-88
2021/01/16 04:17:50;;;;;;;22.97;10.83;;;0.80;84.40;;;;;;4928156;29;20074;-91
2021/01/16 04:20:16;;;;;;;21.83;10.67;;;0.70;84.40;;;;;;4910944;29;20122;-90
2021/01/16 04:22:41;;;;;;;21.37;10.43;;;0.70;84.40;;;;;;4904670;29;20116;-91
2021/01/16 04:25:07;;;;;;;24.33;11.00;;;0.70;84.30;;;;;;4915027;29;20024;-89
2021/01/16 04:27:33;;;;;;;19.87;9.97;;;0.70;84.50;;;;;;4905805;29;20484;-91
2021/01/16 04:30:00;;;;;;;21.20;10.77;;;0.70;84.40;;;;;;4909913;29;20021;-89
2021/01/16 04:32:26;;;;;;;25.60;11.23;;;0.60;84.30;;;;;;4916598;29;20020;-90
2021/01/16 04:34:52;;;;;;;25.40;11.30;;;0.70;84.30;;;;;;4916036;29;20028;-90
2021/01/16 04:37:17;;;;;;;25.03;10.80;;;0.60;84.20;;;;;;4906537;29;20063;-90
2021/01/16 04:39:43;;;;;;;19.90;9.83;;;0.60;83.90;;;;;;4915616;29;20119;-91
2021/01/16 04:42:12;;;;;;;24.40;11.43;;;0.60;83.60;;;;;;4913106;29;20114;-90
2021/01/16 04:44:43;;;;;;;25.83;10.47;;;0.60;83.60;;;;;;4908220;29;20123;-91
2021/01/16 04:47:18;;;;;;;22.77;10.93;;;0.50;83.60;;;;;;4934948;29;20043;-89
2021/01/16 04:49:44;;;;;;;23.17;10.43;;;0.50;83.90;;;;;;4916627;29;20031;-91
2021/01/16 04:52:11;;;;;;;22.43;10.10;;;0.60;83.70;;;;;;4930138;29;20500;-90
2021/01/16 04:54:40;;;;;;;22.63;10.30;;;0.50;83.70;;;;;;4908061;29;20059;-84
2021/01/16 04:57:06;;;;;;;25.77;11.30;;;0.50;83.80;;;;;;4918285;29;20063;-84
2021/01/16 04:59:34;;;;;;;22.70;9.90;;;0.50;83.40;;;;;;4925404;29;20047;-85
2021/01/16 05:02:06;;;;;;;24.67;10.37;;;0.50;83.40;;;;;;4929260;29;20037;-84
2021/01/16 05:04:34;;;;;;;23.30;9.90;;;0.40;83.10;;;;;;4916413;29;20027;-84
2021/01/16 05:07:01;;;;;;;22.57;10.30;;;0.40;83.20;;;;;;4918781;29;20039;-90
2021/01/16 05:09:28;;;;;;;22.50;10.47;;;0.40;83.40;;;;;;4933890;29;20525;-89
2021/01/16 05:12:18;;;;;;;22.30;10.40;;;0.40;83.60;;;;;;4926288;29;20118;-92
2021/01/16 05:15:04;;;;;;;22.73;10.43;;;0.40;83.40;;;;;;4906947;29;20051;-92
2021/01/16 05:17:35;;;;;;;22.57;10.70;;;0.30;83.40;;;;;;4921599;29;20074;-92
2021/01/16 05:20:02;;;;;;;23.33;10.47;;;0.40;83.40;;;;;;4937287;29;20119;-91
2021/01/16 05:22:27;;;;;;;23.40;10.13;;;0.30;83.00;;;;;;4921633;29;20055;-88
2021/01/16 05:25:01;;;;;;;20.30;9.60;;;0.30;83.30;;;;;;4922744;29;20544;-88
2021/01/16 05:27:35;;;;;;;19.90;9.50;;;0.30;82.90;;;;;;4916707;29;20035;-88
2021/01/16 05:30:09;;;;;;;21.90;9.83;;;0.30;83.00;;;;;;4911361;29;20063;-88
2021/01/16 05:32:35;;;;;;;20.40;9.20;;;0.40;82.70;;;;;;4907531;29;20060;-88
2021/01/16 05:35:19;;;;;;;20.50;10.10;;;0.40;82.60;;;;;;4903294;29;20028;-88
2021/01/16 05:37:46;;;;;;;22.40;10.20;;;0.30;82.30;;;;;;4931058;29;20470;-88
2021/01/16 05:40:13;;;;;;;20.07;10.47;;;0.30;82.50;;;;;;4912560;29;20055;-89
2021/01/16 05:42:39;;;;;;;23.00;10.47;;;0.30;82.70;;;;;;4907326;29;20024;-91
2021/01/16 05:45:08;;;;;;;23.07;10.43;;;0.30;82.90;;;;;;4934068;29;20111;-86
2021/01/16 05:47:34;;;;;;;22.73;9.83;;;0.20;83.20;;;;;;4907725;29;20032;-92
2021/01/16 05:50:01;;;;;;;21.30;10.10;;;0.30;83.60;;;;;;4919739;29;20035;-91
2021/01/16 05:52:27;;;;;;;21.40;10.33;;;0.20;83.40;;;;;;4908453;29;20020;-92
2021/01/16 05:55:00;;;;;;;21.17;9.93;;;0.20;83.40;;;;;;4918042;29;20191;-92
2021/01/16 05:57:26;;;;;;;21.47;9.93;;;0.30;83.40;;;;;;4916295;29;20123;-92
2021/01/16 05:59:58;;;;;;;24.27;10.03;;;0.20;83.50;;;;;;4910425;29;20027;-91
2021/01/16 06:02:31;;;;;;;22.58;10.32;;;0.20;83.70;;;;;;4908866;29;20119;-92
2021/01/16 06:04:57;;;;;;;22.53;10.70;;;0.20;83.80;;;;;;4917304;29;20039;-89
2021/01/16 06:07:24;;;;;;;23.23;9.80;;;0.20;84.00;;;;;;4922815;29;20440;-91
2021/01/16 06:09:51;;;;;;;22.40;10.17;;;0.20;84.10;;;;;;4913273;29;20083;-91
2021/01/16 06:12:20;;;;;;;22.80;10.07;;;0.10;83.90;;;;;;4929024;29;20031;-90
2021/01/16 06:14:46;;;;;;;22.17;10.07;;;0.10;83.90;;;;;;4922730;29;20025;-91
2021/01/16 06:17:14;;;;;;;18.27;9.10;;;0.00;83.80;;;;;;4905590;29;20049;-91
2021/01/16 06:19:45;;;;;;;20.73;9.87;;;0.00;84.00;;;;;;4932418;29;20024;-92
2021/01/16 06:22:13;;;;;;;17.98;8.10;;;0.00;84.30;;;;;;4942527;29;20083;-91
2021/01/16 06:24:43;;;;;;;22.93;10.23;;;0.10;84.40;;;;;;4957250;29;20027;-92
2021/01/16 06:27:23;;;;;;;22.47;10.07;;;0.10;84.20;;;;;;4937060;29;20030;-89
2021/01/16 06:30:00;;;;;;;23.97;11.00;;;0.10;84.00;;;;;;4927207;29;20031;-91
2021/01/16 06:32:27;;;;;;;23.23;9.63;;;0.10;84.00;;;;;;4938095;29;20015;-87
2021/01/16 06:35:11;;;;;;;21.43;9.97;;;0.00;84.10;;;;;;4922486;29;20477;-86
2021/01/16 06:37:46;;;;;;;20.77;9.30;;;0.10;84.30;;;;;;4960582;29;20032;-92
2021/01/16 06:40:14;;;;;;;21.67;9.90;;;0.10;84.10;;;;;;4909849;29;20024;-91
2021/01/16 06:42:40;;;;;;;21.30;9.83;;;0.10;84.30;;;;;;4915883;29;20063;-92
2021/01/16 06:45:08;;;;;;;20.43;9.17;;;0.10;84.10;;;;;;4904328;29;20067;-92
2021/01/16 06:47:35;;;;;;;21.27;10.03;;;0.10;83.80;;;;;;4931716;29;20036;-92
2021/01/16 06:50:04;;;;;;;23.90;10.40;;;0.10;84.00;;;;;;4909787;29;20465;-87
2021/01/16 06:52:37;;;;;;;20.50;9.67;;;0.10;83.50;;;;;;4923887;29;20020;-89
2021/01/16 06:55:07;;;;;;;22.93;9.97;;;0.00;83.60;;;;;;4916212;29;20449;-90
2021/01/16 06:57:34;;;;;;;20.00;8.87;;;0.00;83.60;;;;;;4906115;29;20038;-91
2021/01/16 07:00:06;;;;;;;21.20;9.77;;;0.00;83.80;;;;;;4926170;29;20054;-89
2021/01/16 07:02:33;;;;;;;23.58;10.00;;;0.00;83.70;;;;;;4920247;29;20027;-91
2021/01/16 07:05:29;;;;;;;22.13;9.80;;;-0.10;83.00;;;;;;4920591;29;20032;-91
2021/01/16 07:07:54;;;;;;;21.77;9.40;;;-0.10;82.80;;;;;;4926927;29;20032;-89
2021/01/16 07:10:30;;;;;;;23.37;10.90;;;-0.20;83.20;;;;;;4912291;29;20028;-90
2021/01/16 07:12:59;;;;;;;20.50;9.53;;;-0.20;83.20;;;;;;4903548;29;20056;-83
2021/01/16 07:15:29;;;;;;;20.80;9.93;;;-0.20;83.20;;;;;;4937505;29;20433;-89
2021/01/16 07:17:55;;;;;;;23.10;10.50;;;-0.20;83.30;;;;;;4930328;29;20039;-87
2021/01/16 07:20:23;;;;;;;22.47;10.43;;;-0.10;83.20;;;;;;4907742;29;20032;-88
2021/01/16 07:22:51;;;;;;;23.00;9.67;;;-0.10;83.30;;;;;;4916089;29;20082;-88
2021/01/16 07:25:16;;;;;;;21.50;10.47;;;-0.10;83.90;;;;;;4903443;29;20118;-89
2021/01/16 07:27:43;;;;;;;24.03;10.43;;;-0.10;83.40;;;;;;4912754;29;20071;-90
2021/01/16 07:30:13;;;;;;;20.70;10.27;;;-0.10;83.90;;;;;;4910354;29;20027;-89
2021/01/16 07:32:44;;;;;;;19.53;9.80;;;-0.10;83.00;;;;;;4905201;29;20029;-90
2021/01/16 07:35:13;;;;;;;23.20;10.02;;;-0.10;83.00;;;;;;4915460;29;20028;-90
2021/01/16 07:37:43;;;;;;;20.87;10.17;;;-0.10;82.90;;;;;;4923473;29;20051;-90
2021/01/16 07:40:21;;;;;;;23.60;10.13;;;0.00;83.00;;;;;;4908946;29;20052;-90
2021/01/16 07:42:53;;;;;;;21.33;10.53;;;-0.10;82.90;;;;;;4915669;29;20035;-89
2021/01/16 07:45:33;;;;;;;21.40;9.60;;;-0.10;83.00;;;;;;4934838;29;20047;-89
2021/01/16 07:48:02;;;;;;;21.40;10.30;;;-0.10;83.20;;;;;;4909959;29;20036;-88
2021/01/16 07:50:33;;;;;;;20.77;10.13;;;-0.10;82.90;;;;;;4912831;29;20135;-90
2021/01/16 07:53:07;;;;;;;15.63;7.72;;;-0.10;82.90;;;;;;4917623;29;20031;-89
2021/01/16 07:55:36;;;;;;;25.20;10.17;;;-0.10;82.90;;;;;;4905723;29;20039;-90
2021/01/16 07:58:34;;;;;;;20.93;9.73;;;-0.10;82.90;;;;;;4909158;29;20040;-89
2021/01/16 08:01:20;;;;;;;21.90;10.03;;;-0.10;82.80;;;;;;4915986;29;20028;-89
2021/01/16 08:04:10;;;;;;;23.47;10.10;;;-0.10;83.20;;;;;;4907409;29;20544;-91
2021/01/16 08:07:12;;;;;;;23.83;10.80;;;-0.10;82.90;;;;;;4919399;29;20079;-89
2021/01/16 08:09:47;;;;;;;22.60;10.32;;;-0.10;83.50;;;;;;4920793;29;20127;-91
2021/01/16 08:12:14;;;;;;;25.10;10.47;;;-0.10;83.40;;;;;;4911865;29;20082;-92
2021/01/16 08:14:41;;;;;;;21.00;9.93;;;0.00;82.90;;;;;;4918115;29;20086;-92
2021/01/16 08:17:16;;;;;;;22.03;10.47;;;0.00;82.70;;;;;;4906768;29;20082;-89
2021/01/16 08:20:01;;;;;;;22.43;10.13;;;0.00;82.90;;;;;;4938967;29;20083;-91
2021/01/16 08:22:38;;;;;;;21.70;10.33;;;0.00;82.60;;;;;;4915547;29;20035;-91
2021/01/16 08:25:07;;;;;;;22.93;10.60;;;0.00;82.70;;;;;;4918140;29;20032;-93
2021/01/16 08:27:35;;;;;;;21.47;10.10;;;0.00;83.40;;;;;;4948497;29;20044;-90
2021/01/16 08:30:13;;;;;;;20.23;10.17;;;0.10;82.70;;;;;;4942200;29;20087;-89
2021/01/16 08:33:12;;;;;;;25.30;11.00;;;0.10;82.90;;;;;;4930870;29;20032;-91
2021/01/16 08:35:42;;;;;;;26.43;11.00;;;0.10;82.80;;;;;;4904212;29;20038;-89
2021/01/16 08:38:17;;;;;;;22.83;10.60;;;0.10;82.60;;;;;;4927058;29;20036;-88
2021/01/16 08:41:04;;;;;;;25.10;11.27;;;0.10;82.80;;;;;;4945910;29;20054;-90
2021/01/16 08:43:35;;;;;;;23.37;11.30;;;0.10;82.50;;;;;;4928441;29;20032;-91
2021/01/16 08:46:34;;;;;;;25.63;11.33;;;0.10;82.50;;;;;;4921448;29;20508;-88
2021/01/16 08:49:14;;;;;;;25.60;10.77;;;0.10;82.80;;;;;;4912143;29;20046;-90
2021/01/16 08:51:41;;;;;;;27.10;10.93;;;0.10;82.80;;;;;;4921098;29;20055;-91
2021/01/16 08:54:18;;;;;;;25.10;11.50;;;0.00;83.00;;;;;;4928970;29;20102;-88
2021/01/16 08:56:49;;;;;;;23.00;10.90;;;0.00;82.90;;;;;;4907474;29;20494;-91
2021/01/16 08:59:20;;;;;;;23.98;11.27;;;0.00;82.70;;;;;;4918009;29;20126;-90
2021/01/16 09:01:47;;;;;;;23.33;10.80;;;0.00;82.70;;;;;;4910383;29;20024;-87
2021/01/16 09:04:29;;;;;;;27.73;11.43;;;-0.10;83.10;;;;;;4910709;29;20033;-87
2021/01/16 09:07:15;;;;;;;23.45;11.23;;;-0.10;83.30;;;;;;4942252;29;20027;-88
2021/01/16 09:09:57;;;;;;;26.13;11.80;;;-0.10;83.40;;;;;;4915423;29;20115;-89
2021/01/16 09:12:36;;;;;;;25.98;12.00;;;0.00;83.50;;;;;;4919753;29;20079;-86
2021/01/16 09:15:24;;;;;;;25.50;12.20;;;-0.10;83.50;;;;;;4934338;29;20036;-88
2021/01/16 09:18:02;;;;;;;25.00;10.70;;;0.00;83.40;;;;;;4919489;29;20059;-84
2021/01/16 09:20:31;;;;;;;24.80;11.60;;;0.10;83.20;;;;;;4922032;29;20066;-82
2021/01/16 09:22:57;;;;;;;23.83;11.07;;;0.10;83.20;;;;;;4922355;29;20354;-81
2021/01/16 09:25:24;;;;;;;25.20;11.07;;;0.20;83.10;;;;;;4903571;29;20028;-89
2021/01/16 09:27:51;;;;;;;27.93;12.70;;;0.20;82.80;;;;;;4910345;29;20055;-78
2021/01/16 09:30:30;;;;;;;23.03;10.57;;;0.30;82.50;;;;;;4908938;29;20036;-80
2021/01/16 09:32:56;;;;;;;24.43;11.27;;;0.30;82.10;;;;;;4918682;29;20035;-79
2021/01/16 09:35:54;;;;;;;24.40;10.70;;;0.30;82.20;;;;;;4933784;29;20107;-83
2021/01/16 09:38:22;;;;;;;22.70;11.17;;;0.30;82.00;;;;;;4870370;29;20055;-81
2021/01/16 09:40:49;;;;;;;29.10;12.17;;;0.30;82.20;;;;;;4934450;29;20046;-81
2021/01/16 09:43:21;;;;;;;26.27;12.60;;;0.30;81.90;;;;;;4905179;29;20020;-83
2021/01/16 09:45:59;;;;;;;28.63;12.43;;;0.30;82.30;;;;;;4920608;29;20460;-79
2021/01/16 09:48:30;;;;;;;23.90;11.63;;;0.40;82.10;;;;;;4908224;29;20060;-81
2021/01/16 09:51:00;;;;;;;22.60;11.18;;;0.30;82.10;;;;;;4917754;29;20473;-82
2021/01/16 09:53:26;;;;;;;21.70;10.90;;;0.30;82.40;;;;;;4923147;29;20111;-83
2021/01/16 09:55:56;;;;;;;30.73;12.50;;;0.40;82.50;;;;;;4937479;29;20473;-78
2021/01/16 09:58:31;;;;;;;25.50;11.53;;;0.30;82.10;;;;;;4926780;29;20507;-85
2021/01/16 10:01:19;;;;;;;28.07;11.70;;;0.30;82.50;;;;;;4935691;29;20035;-77
2021/01/16 10:03:46;;;;;;;26.83;11.90;;;0.30;82.80;;;;;;4908696;29;20489;-79
2021/01/16 10:06:17;;;;;;;25.80;12.67;;;0.30;82.90;;;;;;4909422;29;20115;-79
2021/01/16 10:08:43;;;;;;;28.27;12.43;;;0.30;82.90;;;;;;4916104;29;20039;-78
2021/01/16 10:11:10;;;;;;;25.40;13.17;;;0.40;82.90;;;;;;4903267;29;20038;-78
2021/01/16 10:13:37;;;;;;;28.87;13.00;;;0.40;82.80;;;;;;4914115;29;20032;-77
2021/01/16 10:16:05;;;;;;;30.10;13.47;;;0.50;82.80;;;;;;4926711;29;20504;-81
2021/01/16 10:18:32;;;;;;;32.43;14.10;;;0.50;83.00;;;;;;4906774;29;20044;-80
2021/01/16 10:21:03;;;;;;;28.97;13.00;;;0.50;82.40;;;;;;4902855;29;20103;-78
2021/01/16 10:23:30;;;;;;;28.80;12.80;;;0.50;82.30;;;;;;4919790;29;20094;-80
2021/01/16 10:26:03;;;;;;;28.97;13.17;;;0.60;82.40;;;;;;4931968;29;20492;-80
2021/01/16 10:28:29;;;;;;;;;;;0.60;82.00;;;;;;4912668;29;20469;-84
2021/01/16 10:31:06;;;;;;;27.73;12.33;;;0.70;82.00;;;;;;4924110;29;19973;-82
2021/01/16 10:33:43;;;;;;;28.50;12.23;;;0.80;81.70;;;;;;4925811;29;20028;-79
2021/01/16 10:36:19;;;;;;;28.63;12.17;;;0.70;81.00;;;;;;4905915;29;20032;-81
2021/01/16 10:38:55;;;;;;;26.70;12.10;;;0.60;81.30;;;;;;4922859;29;20043;-79
2021/01/16 10:41:42;;;;;;;26.00;12.27;;;0.60;81.70;;;;;;4919618;29;20079;-80
2021/01/16 10:44:12;;;;;;;26.23;11.87;;;0.50;81.40;;;;;;4931617;29;20028;-80
2021/01/16 10:46:45;;;;;;;27.83;12.57;;;0.60;81.80;;;;;;4908744;29;20056;-79
2021/01/16 10:49:13;;;;;;;30.07;11.60;;;0.70;81.30;;;;;;4910447;29;20050;-82
2021/01/16 10:51:40;;;;;;;25.23;12.23;;;0.60;81.00;;;;;;4911304;29;20533;-81
2021/01/16 10:54:08;;;;;;;30.63;12.70;;;0.60;81.10;;;;;;4908330;29;20183;-77
2021/01/16 10:56:35;;;;;;;29.60;13.07;;;0.70;81.20;;;;;;4909154;29;20032;-76
2021/01/16 10:59:09;;;;;;;24.27;11.67;;;0.60;81.50;;;;;;4924044;29;20065;-82
2021/01/16 11:01:46;;;;;;;27.90;12.20;;;0.60;81.20;;;;;;4924828;29;20027;-79
2021/01/16 11:04:37;;;;;;;23.80;11.47;;;0.60;81.00;;;;;;4908006;29;20020;-77
2021/01/16 11:07:03;;;;;;;25.80;12.53;;;0.60;80.50;;;;;;4918392;29;20028;-79
2021/01/16 11:09:35;;;;;;;29.03;12.50;;;0.60;81.00;;;;;;4914175;29;20487;-81
2021/01/16 11:12:05;;;;;;;30.30;12.90;;;0.70;81.50;;;;;;4909207;29;20035;-79
2021/01/16 11:14:42;;;;;;;28.67;12.07;;;0.70;80.90;;;;;;4928888;29;20035;-77
2021/01/16 11:17:10;;;;;;;27.60;11.43;;;0.70;80.50;;;;;;4918511;29;20062;-79
2021/01/16 11:19:41;;;;;;;23.47;10.87;;;0.70;79.70;;;;;;4917675;29;20090;-78
2021/01/16 11:22:08;;;;;;;28.87;11.67;;;0.80;79.70;;;;;;4911481;29;20082;-81
2021/01/16 11:24:52;;;;;;;26.23;11.43;;;0.80;79.50;;;;;;4905528;29;20145;-84
2021/01/16 11:27:28;;;;;;;25.53;10.73;;;0.90;79.20;;;;;;4914405;29;20461;-80
2021/01/16 11:30:03;;;;;;;23.77;10.13;;;0.90;79.00;;;;;;4916183;29;20035;-80
2021/01/16 11:32:34;;;;;;;24.07;10.40;;;1.00;77.70;;;;;;4912906;29;20032;-80
2021/01/16 11:35:08;;;;;;;22.83;10.00;;;1.10;77.30;;;;;;4902988;29;20164;-77
2021/01/16 11:37:49;;;;;;;23.23;10.50;;;1.00;76.90;;;;;;4912903;29;20135;-79
2021/01/16 11:40:39;;;;;;;23.90;10.37;;;0.90;77.40;;;;;;4906834;29;20039;-78
2021/01/16 11:43:09;;;;;;;24.17;10.93;;;0.90;77.50;;;;;;4917686;29;20039;-78
2021/01/16 11:45:35;;;;;;;24.67;10.57;;;0.90;78.00;;;;;;4925046;29;20032;-81
2021/01/16 11:48:03;;;;;;;25.27;11.10;;;1.00;77.60;;;;;;4920788;29;20082;-78
2021/01/16 11:50:34;;;;;;;26.07;11.13;;;1.00;77.20;;;;;;4914885;29;20040;-85
2021/01/16 11:53:07;;;;;;;23.13;10.45;;;1.00;76.90;;;;;;4939525;29;20089;-78
2021/01/16 11:55:33;;;;;;;22.53;10.20;;;1.00;76.70;;;;;;4913268;29;20051;-76
2021/01/16 11:58:01;;;;;;;25.40;10.77;;;1.00;76.00;;;;;;4930366;29;20130;-80
2021/01/16 12:00:27;;;;;;;25.80;11.37;;;1.00;76.20;;;;;;4917633;29;20389;-80
2021/01/16 12:02:55;;;;;;;27.27;11.50;;;0.90;76.40;;;;;;4915274;29;20028;-82
2021/01/16 12:05:22;;;;;;;27.63;10.90;;;1.00;77.50;;;;;;4914862;29;20091;-81
2021/01/16 12:07:50;;;;;;;25.13;11.50;;;1.20;78.30;;;;;;4912193;29;20024;-80
2021/01/16 12:10:17;;;;;;;26.97;11.23;;;1.20;76.70;;;;;;4916608;29;20031;-83
2021/01/16 12:12:43;;;;;;;25.13;11.07;;;1.20;76.00;;;;;;4929231;29;20031;-82
2021/01/16 12:15:35;;;;;;;24.57;10.83;;;1.20;76.00;;;;;;4924275;29;20504;-82
2021/01/16 12:18:02;;;;;;;24.75;11.07;;;1.20;76.10;;;;;;4921292;29;20048;-81
2021/01/16 12:20:32;;;;;;;23.73;10.87;;;1.20;75.50;;;;;;4929071;29;20040;-83
2021/01/16 12:23:00;;;;;;;25.17;10.90;;;1.10;75.70;;;;;;4921474;29;20131;-80
2021/01/16 12:25:33;;;;;;;26.97;11.33;;;1.20;76.00;;;;;;4910738;29;20034;-82
2021/01/16 12:28:00;;;;;;;26.13;12.20;;;1.20;75.60;;;;;;4915870;29;20095;-82
2021/01/16 12:30:35;;;;;;;22.87;10.90;;;1.30;75.80;;;;;;4909300;29;20032;-82
2021/01/16 12:33:00;;;;;;;24.53;11.43;;;1.50;75.00;;;;;;4921384;29;20130;-81
2021/01/16 12:35:27;;;;;;;22.03;10.37;;;1.60;74.60;;;;;;4927702;29;20106;-84
2021/01/16 12:37:53;;;;;;;22.37;9.80;;;1.60;74.20;;;;;;4916392;29;20139;-84
2021/01/16 12:40:21;;;;;;;26.17;10.20;;;1.60;74.80;;;;;;4910063;29;20043;-84
2021/01/16 12:42:48;;;;;;;22.00;9.70;;;1.60;74.00;;;;;;4914602;29;20107;-84
2021/01/16 12:45:23;;;;;;;21.83;9.30;;;1.50;73.10;;;;;;4937980;29;20027;-84
2021/01/16 12:47:51;;;;;;;19.07;8.50;;;1.50;73.50;;;;;;4930106;29;20041;-84
2021/01/16 12:50:17;;;;;;;18.50;9.00;;;1.60;72.80;;;;;;4940013;29;20036;-84
2021/01/16 12:52:47;;;;;;;20.17;9.83;;;1.60;73.10;;;;;;4921635;29;20453;-84
2021/01/16 12:55:15;;;;;;;21.73;9.97;;;1.70;73.40;;;;;;4919903;29;20127;-84
2021/01/16 12:57:46;;;;;;;24.23;10.53;;;1.70;73.20;;;;;;4908550;29;20035;-84
2021/01/16 13:00:14;;;;;;;21.05;9.63;;;1.80;73.40;;;;;;4910890;29;20078;-85